首页
METAR-TAF:

METAR-TAF

机场 :

High Level, 艾伯塔, 加拿大

纬度: 58-37N, 经度: 117-10W, 海拔: 338米

当前天气观测

该预报发布于1小时和8分钟前的12:00 UTC
风速5节,风向
温度 11°C
湿度 87%
气压 1014 hPa
能見度: 14.5公里
阴天层高于9600英尺

METAR: CYOJ 251200Z AUTO 35005KT 9SM OVC096 11/09 A2994 RMK SLP149

时间: 07:08 (13:08 UTC)

预报

该预报发布于28分钟前的12:40 UTC
预报有效从25日的 13点(UTC)到 26日的 01点(UTC)
风速5节,风向
能見度: 10公里
多云层高于8000英尺
阴天层高于20000英尺
从 25日的 1500点(UTC)
风速5节,风向
能見度: 10公里
多云层高于7000英尺
阴天层高于20000英尺
短暂存在
从 25日的 15点(UTC)到 26日的 01点(UTC)
能見度: 10公里
小阵雨

TAF: CYOJ 251240Z 2513/2601 36005KT P6SM BKN080 OVC200 FM251500 35005KT P6SM BKN070 OVC200 TEMPO 2515/2601 P6SM -SHRA RMK FCST BASED ON AUTO OBS. NXT FCST BY 251900Z

超过4000个机场的气象观测和天气预报(METAR&TAF报告)。

可查询的气象台以黄色和红色小点在地图上表示。

将鼠标移到小点上方,可查看气象台名称。

然后点击查看天气观测和预报。

如需切换地图:点击带黑十字的绿色按钮放大地图;点击带横线的绿色按钮缩小地图;或者点击绿色箭头查看邻近地区的地图。


METAR-TAF: